Time;durP1;ratioP1;P1;durP2;ratioP2;P2;SDS_P1;SDS_P2;PMS_P1;PMS_P2;Temp;Humidity;BMP_temperature;BMP_pressure;BME280_temperature;BME280_humidity;BME280_pressure;Samples;Min_cycle;Max_cycle;Signal;HPM_P1;HPM_P2
2022/10/02 00:00:05;;;;;;;13.45;4.38;;;12.80;99.90;;;;;;4972072;28;95408;-72
2022/10/02 00:02:57;;;;;;;11.45;4.00;;;12.80;99.90;;;;;;4957071;28;93048;-72
2022/10/02 00:05:43;;;;;;;12.13;4.15;;;12.70;99.90;;;;;;4957354;28;92492;-72
2022/10/02 00:08:24;;;;;;;12.60;4.18;;;12.70;99.90;;;;;;4957240;28;94124;-72
2022/10/02 00:10:56;;;;;;;12.48;5.00;;;12.70;99.90;;;;;;4939272;28;95739;-72
2022/10/02 00:13:29;;;;;;;11.73;4.32;;;12.70;99.90;;;;;;4972151;28;92524;-72
2022/10/02 00:15:56;;;;;;;;;;;12.70;99.90;;;;;;4957958;28;91720;-72
2022/10/02 00:18:35;;;;;;;11.23;4.70;;;12.60;99.90;;;;;;4956685;28;95660;-70
2022/10/02 00:21:21;;;;;;;10.93;5.22;;;12.60;99.90;;;;;;4957099;28;93001;-69
2022/10/02 00:23:52;;;;;;;13.85;4.75;;;12.60;99.90;;;;;;4954548;28;94865;-69
2022/10/02 00:26:34;;;;;;;11.40;4.55;;;12.60;99.90;;;;;;4957027;28;92984;-69
2022/10/02 00:29:26;;;;;;;14.55;4.68;;;12.60;99.90;;;;;;4956787;28;93361;-69
2022/10/02 00:32:16;;;;;;;11.52;6.03;;;12.60;99.90;;;;;;4971645;28;95598;-69
2022/10/02 00:35:02;;;;;;;12.45;5.78;;;12.60;99.90;;;;;;4939103;28;92558;-69
2022/10/02 00:37:43;;;;;;;14.13;5.00;;;12.50;99.90;;;;;;4957025;28;92443;-69
2022/10/02 00:40:28;;;;;;;11.57;4.88;;;12.50;99.90;;;;;;4955679;28;93301;-69
2022/10/02 00:43:16;;;;;;;12.38;5.82;;;12.50;99.90;;;;;;4956967;28;93041;-70
2022/10/02 00:45:58;;;;;;;11.65;4.85;;;12.40;99.90;;;;;;4972074;28;92538;-69
2022/10/02 00:48:41;;;;;;;14.63;5.07;;;12.40;99.90;;;;;;4971467;28;92455;-69
2022/10/02 00:51:10;;;;;;;14.05;5.03;;;12.40;99.90;;;;;;4953569;28;98783;-69
2022/10/02 00:53:55;;;;;;;17.70;4.90;;;12.40;99.90;;;;;;4955081;28;95473;-69
2022/10/02 00:56:56;;;;;;;11.35;4.75;;;12.30;99.90;;;;;;4955645;28;92521;-69
2022/10/02 00:59:25;;;;;;;15.40;5.45;;;12.30;99.90;;;;;;4956570;28;92366;-69
2022/10/02 01:01:59;;;;;;;14.00;4.55;;;12.30;99.90;;;;;;4955022;28;93178;-69
2022/10/02 01:04:36;;;;;;;16.92;5.97;;;12.30;99.90;;;;;;4956753;28;92986;-69
2022/10/02 01:07:06;;;;;;;14.80;4.72;;;12.30;99.90;;;;;;4956443;28;92466;-69
2022/10/02 01:09:33;;;;;;;16.20;4.70;;;12.20;99.90;;;;;;4956663;28;91706;-69
2022/10/02 01:12:00;;;;;;;11.95;4.93;;;12.30;99.90;;;;;;4954751;28;93344;-69
2022/10/02 01:14:38;;;;;;;12.85;5.32;;;12.20;99.90;;;;;;4954717;28;95725;-69
2022/10/02 01:17:20;;;;;;;8.52;4.15;;;12.30;99.90;;;;;;4954022;28;94792;-69
2022/10/02 01:19:47;;;;;;;13.13;4.82;;;12.20;99.90;;;;;;4956258;28;92445;-69
2022/10/02 01:22:22;;;;;;;13.45;4.95;;;12.20;99.90;;;;;;4938259;28;95898;-69
2022/10/02 01:24:50;;;;;;;12.25;4.00;;;12.30;99.90;;;;;;4956010;28;93131;-69
2022/10/02 01:27:18;;;;;;;13.45;4.88;;;12.20;99.90;;;;;;4955726;28;92459;-69
2022/10/02 01:33:40;;;;;;;14.13;4.18;;;12.30;99.90;;;;;;4955213;28;93142;-69
2022/10/02 01:36:08;;;;;;;13.20;4.35;;;12.10;99.90;;;;;;4956294;28;92867;-70
2022/10/02 01:38:36;;;;;;;11.77;4.63;;;12.10;99.90;;;;;;4954062;28;104187;-69
2022/10/02 01:41:03;;;;;;;19.75;4.95;;;12.10;99.90;;;;;;4954721;28;92958;-69
2022/10/02 01:43:34;;;;;;;15.82;5.35;;;12.10;99.90;;;;;;4969358;28;99609;-69
2022/10/02 01:46:28;;;;;;;11.75;4.68;;;12.10;99.90;;;;;;4955394;28;95563;-69
2022/10/02 01:49:14;;;;;;;11.35;4.07;;;12.20;99.90;;;;;;4935813;28;92854;-69
2022/10/02 01:51:50;;;;;;;11.88;3.85;;;12.10;99.90;;;;;;4939370;28;92442;-69
2022/10/02 01:54:24;;;;;;;12.07;3.67;;;12.10;99.90;;;;;;4959034;28;93375;-69
2022/10/02 01:57:23;;;;;;;11.20;4.32;;;12.10;99.90;;;;;;4959484;28;92824;-69
2022/10/02 02:00:14;;;;;;;8.95;3.65;;;12.10;99.90;;;;;;4958199;28;92536;-69
2022/10/02 02:03:07;;;;;;;9.60;4.05;;;12.10;99.90;;;;;;4959318;28;91672;-70
2022/10/02 02:05:46;;;;;;;10.68;3.60;;;12.10;99.90;;;;;;4957806;28;92509;-69
2022/10/02 02:08:27;;;;;;;12.95;3.78;;;12.10;99.90;;;;;;4974093;28;95745;-69
2022/10/02 02:11:12;;;;;;;11.82;3.65;;;12.10;99.90;;;;;;4957966;28;94743;-70
2022/10/02 02:13:59;;;;;;;10.05;3.45;;;12.20;99.90;;;;;;4959256;28;92500;-69
2022/10/02 02:16:35;;;;;;;10.10;3.67;;;12.20;99.90;;;;;;4973538;28;95980;-69
2022/10/02 02:19:15;;;;;;;9.90;3.70;;;12.10;99.90;;;;;;4957389;28;95601;-69
2022/10/02 02:22:07;;;;;;;12.65;3.78;;;12.20;99.90;;;;;;4973879;28;92490;-69
2022/10/02 02:24:43;;;;;;;8.85;3.40;;;12.20;99.90;;;;;;4973719;28;92432;-70
2022/10/02 02:27:16;;;;;;;11.15;3.88;;;12.20;99.90;;;;;;4973183;28;95969;-69
2022/10/02 02:29:48;;;;;;;18.27;8.30;;;12.20;99.90;;;;;;4957397;28;93059;-69
2022/10/02 02:32:19;;;;;;;12.15;3.88;;;12.20;99.90;;;;;;4958942;28;92495;-69
2022/10/02 02:34:56;;;;;;;12.43;3.72;;;12.30;99.90;;;;;;4957490;28;92498;-69
2022/10/02 02:37:26;;;;;;;10.13;3.47;;;12.30;99.90;;;;;;4955961;28;98161;-69
2022/10/02 02:40:02;;;;;;;10.70;3.95;;;12.30;99.90;;;;;;4958400;28;96760;-69
2022/10/02 02:42:35;;;;;;;6.30;3.00;;;12.40;99.90;;;;;;4958745;28;92460;-69
2022/10/02 02:45:10;;;;;;;12.80;3.60;;;12.30;99.90;;;;;;4941210;28;92451;-69
2022/10/02 02:47:46;;;;;;;12.88;4.40;;;12.40;99.90;;;;;;4958623;28;93109;-69
2022/10/02 02:50:32;;;;;;;15.88;4.25;;;12.40;99.90;;;;;;4973582;28;92779;-69
2022/10/02 02:53:12;;;;;;;11.93;3.85;;;12.40;99.90;;;;;;4959071;28;92870;-69
2022/10/02 02:55:58;;;;;;;15.05;3.97;;;12.40;99.90;;;;;;4958783;28;91787;-69
2022/10/02 02:58:42;;;;;;;10.20;3.88;;;12.40;99.90;;;;;;4956957;28;99622;-69
2022/10/02 03:01:09;;;;;;;;;;;12.40;99.90;;;;;;4973274;28;94280;-69
2022/10/02 03:03:36;;;;;;;14.45;4.20;;;12.30;99.90;;;;;;4957236;28;94832;-69
2022/10/02 03:06:32;;;;;;;17.50;4.95;;;12.30;99.90;;;;;;4958474;28;92970;-69
2022/10/02 03:09:00;;;;;;;15.90;4.10;;;12.30;99.90;;;;;;4956923;28;94948;-69
2022/10/02 03:11:30;;;;;;;11.85;4.68;;;12.30;99.90;;;;;;4956597;28;92944;-69
2022/10/02 03:14:15;;;;;;;11.63;3.45;;;12.30;99.90;;;;;;4956782;28;92524;-69
2022/10/02 03:16:50;;;;;;;12.85;4.43;;;12.30;99.90;;;;;;4956990;28;92360;-69
2022/10/02 03:19:36;;;;;;;15.98;5.00;;;12.40;99.90;;;;;;4958118;28;93177;-69
2022/10/02 03:22:10;;;;;;;14.63;4.20;;;12.40;99.90;;;;;;4973461;28;95665;-69
2022/10/02 03:24:58;;;;;;;16.50;4.32;;;12.40;99.90;;;;;;4956739;28;92440;-69
2022/10/02 03:27:30;;;;;;;15.45;3.67;;;12.50;99.90;;;;;;4940146;28;92433;-69
2022/10/02 03:30:12;;;;;;;11.88;3.85;;;12.40;99.90;;;;;;4939500;28;98258;-69
2022/10/02 03:32:44;;;;;;;15.25;4.03;;;12.40;99.90;;;;;;4957617;28;95444;-69
2022/10/02 03:35:12;;;;;;;15.25;5.70;;;12.40;99.90;;;;;;4972766;28;92536;-69
2022/10/02 03:37:48;;;;;;;15.90;4.70;;;12.40;99.90;;;;;;4957581;28;92345;-69
2022/10/02 03:40:15;;;;;;;14.00;4.70;;;12.40;99.90;;;;;;4956158;28;95805;-69
2022/10/02 03:42:42;;;;;;;14.73;4.68;;;12.40;99.90;;;;;;4957403;28;93173;-69
2022/10/02 03:45:09;;;;;;;17.65;5.45;;;12.50;99.90;;;;;;4956582;28;92482;-69
2022/10/02 03:47:45;;;;;;;12.23;4.05;;;12.60;99.90;;;;;;4957985;28;91780;-69
2022/10/02 03:50:13;;;;;;;13.45;4.32;;;12.60;99.90;;;;;;4956003;28;99481;-69
2022/10/02 03:52:41;;;;;;;10.50;3.78;;;12.70;99.90;;;;;;4957198;28;93071;-69
2022/10/02 03:55:19;;;;;;;11.48;3.60;;;12.70;99.90;;;;;;4956569;28;95182;-69
2022/10/02 03:57:46;;;;;;;16.58;4.63;;;12.70;99.90;;;;;;4956430;28;92479;-69
2022/10/02 04:00:26;;;;;;;17.65;4.80;;;12.70;99.90;;;;;;4940054;28;93105;-69
2022/10/02 04:02:59;;;;;;;11.95;4.22;;;12.70;99.90;;;;;;4971961;28;95558;-69
2022/10/02 04:05:34;;;;;;;14.07;4.32;;;12.70;99.90;;;;;;4957590;28;92772;-69
2022/10/02 04:08:18;;;;;;;17.65;4.90;;;12.70;99.90;;;;;;4972299;28;92553;-69
2022/10/02 04:11:12;;;;;;;16.52;4.40;;;12.70;99.90;;;;;;4957006;28;93184;-69
2022/10/02 04:13:39;;;;;;;;;;;12.70;99.90;;;;;;4956557;28;94798;-69
2022/10/02 04:16:09;;;;;;;17.27;3.75;;;12.60;99.90;;;;;;4958173;28;92313;-69
2022/10/02 04:18:59;;;;;;;15.50;3.20;;;12.60;99.90;;;;;;4957054;28;92496;-69
2022/10/02 04:21:29;;;;;;;12.38;3.65;;;12.60;99.90;;;;;;4954515;28;98072;-69
2022/10/02 04:24:13;;;;;;;12.95;3.83;;;12.60;99.90;;;;;;4939231;28;96614;-69
2022/10/02 04:26:46;;;;;;;12.32;3.22;;;12.60;99.90;;;;;;4955524;28;92767;-69
2022/10/02 04:29:46;;;;;;;8.10;2.78;;;12.60;99.90;;;;;;4939383;28;93329;-69
2022/10/02 04:32:24;;;;;;;9.07;2.53;;;12.60;99.90;;;;;;4971690;28;95928;-69
2022/10/02 04:34:53;;;;;;;17.80;3.10;;;12.50;99.90;;;;;;4956571;28;92982;-69
2022/10/02 04:37:40;;;;;;;12.07;3.83;;;12.50;99.90;;;;;;4955656;28;92538;-69
2022/10/02 04:40:23;;;;;;;12.15;2.72;;;12.50;99.90;;;;;;4956014;28;92256;-69
2022/10/02 04:43:11;;;;;;;13.18;3.38;;;12.50;99.90;;;;;;4956630;28;93350;-69
2022/10/02 04:46:06;;;;;;;14.30;3.40;;;12.50;99.90;;;;;;4956808;28;92988;-69
2022/10/02 04:48:47;;;;;;;8.75;2.75;;;12.50;99.90;;;;;;4970560;28;94863;-69
2022/10/02 04:51:25;;;;;;;12.63;2.50;;;12.40;99.90;;;;;;4956901;28;92433;-69
2022/10/02 04:54:11;;;;;;;10.18;3.15;;;12.40;99.90;;;;;;4955231;28;92620;-69
2022/10/02 04:57:05;;;;;;;8.85;2.92;;;12.40;99.90;;;;;;4956742;28;92970;-69
2022/10/02 04:59:54;;;;;;;11.35;2.72;;;12.40;99.90;;;;;;4957020;28;92453;-69
2022/10/02 05:02:41;;;;;;;8.43;2.60;;;12.40;99.90;;;;;;4956584;28;92338;-69
2022/10/02 05:05:18;;;;;;;10.05;2.85;;;12.30;99.90;;;;;;4955175;28;93272;-69
2022/10/02 05:08:03;;;;;;;12.63;3.22;;;12.30;99.90;;;;;;4939155;28;95696;-69
2022/10/02 05:10:45;;;;;;;12.88;2.38;;;12.30;99.90;;;;;;4954969;28;92456;-69
2022/10/02 05:13:15;;;;;;;9.88;2.70;;;12.30;99.90;;;;;;4956634;28;92587;-69
2022/10/02 05:16:00;;;;;;;10.95;2.88;;;12.30;99.90;;;;;;4953797;28;95698;-69
2022/10/02 05:18:53;;;;;;;7.90;2.45;;;12.30;99.90;;;;;;4956364;28;95368;-69
2022/10/02 05:21:39;;;;;;;9.98;2.63;;;12.30;99.90;;;;;;4954980;28;93032;-69
2022/10/02 05:24:33;;;;;;;9.35;2.40;;;12.20;99.90;;;;;;4971257;28;92766;-69
2022/10/02 05:27:18;;;;;;;12.95;2.67;;;12.20;99.90;;;;;;4954672;28;93303;-69
2022/10/02 05:30:12;;;;;;;11.70;3.63;;;12.20;99.90;;;;;;4956234;28;93170;-69
2022/10/02 05:32:57;;;;;;;9.25;2.65;;;12.20;99.90;;;;;;4956519;28;92475;-69
2022/10/02 05:35:58;;;;;;;11.48;3.38;;;12.20;99.90;;;;;;4955350;28;92257;-69
2022/10/02 05:38:37;;;;;;;12.63;3.90;;;12.20;99.90;;;;;;4954668;28;92993;-69
2022/10/02 05:41:22;;;;;;;12.98;4.75;;;12.20;99.90;;;;;;4970696;28;95756;-69
2022/10/02 05:44:08;;;;;;;9.82;3.05;;;12.20;99.90;;;;;;4954612;28;94885;-69
2022/10/02 05:46:42;;;;;;;14.15;3.47;;;12.20;99.90;;;;;;4938193;28;92542;-69
2022/10/02 05:49:21;;;;;;;11.63;3.00;;;12.10;99.90;;;;;;4954181;28;95697;-69
2022/10/02 05:52:12;;;;;;;11.02;3.13;;;12.20;99.90;;;;;;4938025;28;94208;-69
2022/10/02 05:55:02;;;;;;;12.93;2.60;;;12.10;99.90;;;;;;4938434;28;92461;-69
2022/10/02 05:57:30;;;;;;;11.52;3.70;;;12.10;99.90;;;;;;4955918;28;92529;-69
2022/10/02 06:00:35;;;;;;;8.43;2.97;;;12.10;99.90;;;;;;4955441;28;93247;-69
2022/10/02 06:03:25;;;;;;;9.73;2.72;;;12.20;99.90;;;;;;4954829;28;93049;-69
2022/10/02 06:06:13;;;;;;;13.32;4.45;;;12.20;99.90;;;;;;4956063;28;93213;-69
2022/10/02 06:08:43;;;;;;;12.88;3.72;;;12.20;99.90;;;;;;4954621;28;92451;-69
2022/10/02 06:11:30;;;;;;;12.85;4.28;;;12.20;99.90;;;;;;4969049;28;98184;-69
2022/10/02 06:14:26;;;;;;;10.48;3.00;;;12.30;99.90;;;;;;4955632;28;95517;-69
2022/10/02 06:17:40;;;;;;;13.50;3.05;;;12.30;99.90;;;;;;4970844;28;92513;-69
2022/10/02 06:20:20;;;;;;;16.65;3.60;;;12.30;99.90;;;;;;4951902;28;92670;-69
2022/10/02 06:22:53;;;;;;;9.88;2.95;;;12.30;99.90;;;;;;4953993;28;96045;-69
2022/10/02 06:25:24;;;;;;;15.60;3.35;;;12.40;99.90;;;;;;4954963;28;92914;-69
2022/10/02 06:28:25;;;;;;;11.43;3.20;;;12.40;99.90;;;;;;4955672;28;92470;-69
2022/10/02 06:31:00;;;;;;;5.75;2.78;;;12.50;99.90;;;;;;4954279;28;91971;-69
2022/10/02 06:33:30;;;;;;;7.93;2.72;;;12.50;99.90;;;;;;4955405;28;93319;-69
2022/10/02 06:35:57;;;;;;;13.10;3.70;;;12.60;99.90;;;;;;4953414;28;93968;-69
2022/10/02 06:38:34;;;;;;;8.38;2.80;;;12.60;99.90;;;;;;4953606;28;95081;-69
2022/10/02 06:41:12;;;;;;;15.18;3.90;;;12.70;99.90;;;;;;4958852;28;92364;-69
2022/10/02 06:43:42;;;;;;;11.73;3.88;;;12.80;99.90;;;;;;4958769;28;93354;-69
2022/10/02 06:46:24;;;;;;;14.32;4.88;;;12.80;99.90;;;;;;4958384;28;92641;-69
2022/10/02 06:49:03;;;;;;;9.68;3.83;;;12.90;99.90;;;;;;4958673;28;92506;-69
2022/10/02 06:51:42;;;;;;;10.35;4.10;;;13.00;99.90;;;;;;4940919;28;92558;-69
2022/10/02 06:54:25;;;;;;;6.30;2.67;;;13.20;99.90;;;;;;4973152;28;95897;-69
2022/10/02 06:57:03;;;;;;;9.80;3.20;;;13.40;99.90;;;;;;4958530;28;92977;-69
2022/10/02 07:00:17;;;;;;;11.32;3.13;;;13.50;99.90;;;;;;4958526;28;92766;-69
2022/10/02 07:02:55;;;;;;;18.15;3.42;;;13.60;99.90;;;;;;4958262;28;92467;-69
2022/10/02 07:05:37;;;;;;;12.15;3.40;;;13.50;99.90;;;;;;4955695;28;95565;-69
2022/10/02 07:08:14;;;;;;;12.75;4.47;;;13.60;99.90;;;;;;4958305;28;95394;-69
2022/10/02 07:10:56;;;;;;;13.25;4.05;;;13.70;99.90;;;;;;4958360;28;93401;-69
2022/10/02 07:13:31;;;;;;;11.63;5.20;;;13.80;99.90;;;;;;4956572;28;92466;-69
2022/10/02 07:16:46;;;;;;;15.88;3.90;;;13.80;99.90;;;;;;4956922;28;93185;-69
2022/10/02 07:19:16;;;;;;;;;;;13.80;99.90;;;;;;4936252;28;93031;-69
2022/10/02 07:21:54;;;;;;;12.95;3.22;;;13.90;99.90;;;;;;4921151;28;92668;-69
2022/10/02 07:24:57;;;;;;;9.55;3.35;;;14.00;99.90;;;;;;4950266;28;92042;-69
2022/10/02 07:27:45;;;;;;;15.52;3.95;;;14.20;99.90;;;;;;4957452;28;93310;-69
2022/10/02 07:30:16;;;;;;;8.32;3.15;;;14.40;99.90;;;;;;4957732;28;92949;-69
2022/10/02 07:33:00;;;;;;;13.00;3.70;;;14.50;99.90;;;;;;4956954;28;94913;-69
2022/10/02 07:35:36;;;;;;;10.38;3.22;;;14.70;99.90;;;;;;4957841;28;92477;-69
2022/10/02 07:38:18;;;;;;;9.57;4.78;;;15.00;99.90;;;;;;4957789;28;92559;-70
2022/10/02 07:41:08;;;;;;;12.25;3.97;;;15.40;99.90;;;;;;4957893;28;93060;-70
2022/10/02 07:44:06;;;;;;;12.30;2.83;;;15.50;99.90;;;;;;4953581;28;92616;-70
2022/10/02 07:46:53;;;;;;;10.32;3.13;;;15.70;99.90;;;;;;4957691;28;92506;-70
2022/10/02 07:49:31;;;;;;;11.73;4.18;;;15.70;99.90;;;;;;4955902;28;93275;-70
2022/10/02 07:52:07;;;;;;;16.58;3.80;;;15.80;99.90;;;;;;4957692;28;91959;-70
2022/10/02 07:54:46;;;;;;;12.40;3.20;;;15.90;99.90;;;;;;4956156;28;92460;-70
2022/10/02 07:57:33;;;;;;;10.77;2.47;;;16.00;99.90;;;;;;4956137;28;92678;-70
2022/10/02 08:00:15;;;;;;;10.93;3.33;;;16.00;99.90;;;;;;4954597;28;98237;-70
2022/10/02 08:02:42;;;;;;;11.82;3.83;;;16.10;99.90;;;;;;4957472;28;95278;-70
2022/10/02 08:05:22;;;;;;;9.43;2.50;;;16.10;99.90;;;;;;4957001;28;98060;-70
2022/10/02 08:07:54;;;;;;;11.05;2.17;;;16.20;99.90;;;;;;4972307;28;92584;-70
2022/10/02 08:10:25;;;;;;;11.45;2.53;;;16.20;99.90;;;;;;4956843;28;93259;-70
2022/10/02 08:13:09;;;;;;;9.70;2.22;;;16.30;99.90;;;;;;4957406;28;93022;-70
2022/10/02 08:15:37;;;;;;;8.57;2.40;;;16.30;99.90;;;;;;4972237;28;92458;-70
2022/10/02 08:18:23;;;;;;;8.93;2.45;;;16.40;99.90;;;;;;4955975;28;99883;-70
2022/10/02 08:21:14;;;;;;;6.05;3.45;;;16.70;99.90;;;;;;4955544;28;98037;-70
2022/10/02 08:23:58;;;;;;;10.48;3.42;;;17.00;99.90;;;;;;4957312;28;93197;-70
2022/10/02 08:26:33;;;;;;;;;;;17.20;99.90;;;;;;4955261;28;95275;-70
2022/10/02 08:29:16;;;;;;;5.93;1.90;;;17.20;99.90;;;;;;4956957;28;92542;-70
2022/10/02 08:31:43;;;;;;;6.03;1.75;;;17.50;99.90;;;;;;4957135;28;93301;-70
2022/10/02 08:34:16;;;;;;;7.13;2.03;;;17.60;99.90;;;;;;4939509;28;93004;-70
2022/10/02 08:36:43;;;;;;;;;;;17.70;99.90;;;;;;4956226;28;92495;-70
2022/10/02 08:39:38;;;;;;;6.60;1.77;;;17.50;99.90;;;;;;4957839;28;92922;-70
2022/10/02 08:42:11;;;;;;;6.50;1.88;;;17.60;99.90;;;;;;4955661;28;93307;-70
2022/10/02 08:44:57;;;;;;;8.35;3.92;;;17.70;99.90;;;;;;4956800;28;93093;-70
2022/10/02 08:47:54;;;;;;;6.60;3.10;;;17.70;99.90;;;;;;4956858;28;92540;-70
2022/10/02 08:50:58;;;;;;;10.05;2.38;;;17.60;99.90;;;;;;4956719;28;92509;-70
2022/10/02 08:53:37;;;;;;;10.23;3.92;;;17.40;99.90;;;;;;4953821;28;95701;-70
2022/10/02 08:56:10;;;;;;;7.97;3.25;;;17.10;99.90;;;;;;4955289;28;95304;-70
2022/10/02 08:58:53;;;;;;;8.50;3.20;;;17.00;99.90;;;;;;4971333;28;92469;-70
2022/10/02 09:01:41;;;;;;;8.70;2.58;;;17.10;99.90;;;;;;4955714;28;92436;-70
2022/10/02 09:04:09;;;;;;;8.75;2.13;;;17.10;99.90;;;;;;4971453;28;95907;-70
2022/10/02 09:06:45;;;;;;;8.57;3.33;;;17.10;99.90;;;;;;4938382;28;94308;-70
2022/10/02 09:09:27;;;;;;;6.88;2.30;;;17.10;99.90;;;;;;4956396;28;92446;-70
2022/10/02 09:12:45;;;;;;;12.30;3.03;;;17.20;99.90;;;;;;4955306;28;91838;-70
2022/10/02 09:15:30;;;;;;;10.55;2.55;;;17.20;99.90;;;;;;4932834;28;94506;-70
2022/10/02 09:18:06;;;;;;;9.20;2.80;;;17.20;99.90;;;;;;4956433;28;93047;-70
2022/10/02 09:20:42;;;;;;;9.85;2.72;;;17.30;99.90;;;;;;4937194;28;95551;-70
2022/10/02 09:23:31;;;;;;;5.85;2.03;;;17.50;99.90;;;;;;4971043;28;92527;-70
2022/10/02 09:26:06;;;;;;;8.15;2.80;;;17.80;99.90;;;;;;4954620;28;93211;-70
2022/10/02 09:28:58;;;;;;;10.48;3.13;;;17.90;99.90;;;;;;4955677;28;92873;-70
2022/10/02 09:31:47;;;;;;;5.22;2.08;;;18.20;99.90;;;;;;4956315;28;92447;-70
2022/10/02 09:34:32;;;;;;;6.22;1.98;;;18.30;99.90;;;;;;4971350;28;92407;-70
2022/10/02 09:37:05;;;;;;;5.28;1.52;;;18.40;99.90;;;;;;4956123;28;93367;-70
2022/10/02 09:39:35;;;;;;;;;;;18.30;99.90;;;;;;4956400;28;92897;-70
2022/10/02 09:42:19;;;;;;;5.57;2.22;;;18.10;99.90;;;;;;4956051;28;92556;-70
2022/10/02 09:45:24;;;;;;;6.57;1.77;;;18.00;99.90;;;;;;4955825;28;92387;-70
2022/10/02 09:48:00;;;;;;;5.03;3.60;;;18.10;99.90;;;;;;4969106;28;98111;-70
2022/10/02 09:50:51;;;;;;;3.10;1.27;;;17.90;99.90;;;;;;4955921;28;95436;-70
2022/10/02 09:53:47;;;;;;;5.68;1.50;;;17.80;99.90;;;;;;4956428;28;93026;-70
2022/10/02 09:56:55;;;;;;;3.20;1.50;;;17.80;99.90;;;;;;4971003;28;92500;-70
2022/10/02 09:59:46;;;;;;;7.18;2.63;;;17.70;99.90;;;;;;4945782;28;95897;-70
2022/10/02 10:02:55;;;;;;;8.85;3.45;;;17.80;99.90;;;;;;4954680;28;93015;-70
2022/10/02 10:05:38;;;;;;;7.65;2.38;;;17.90;99.90;;;;;;4971141;28;92519;-70
2022/10/02 10:08:55;;;;;;;6.10;1.75;;;17.80;99.90;;;;;;4954916;28;91611;-70
2022/10/02 10:11:38;;;;;;;5.18;2.38;;;17.90;99.90;;;;;;4937510;28;92552;-70
2022/10/02 10:14:23;;;;;;;5.25;2.17;;;18.00;99.90;;;;;;4958958;28;93142;-70
2022/10/02 10:17:24;;;;;;;9.23;2.10;;;18.10;99.90;;;;;;4972780;28;94905;-70
2022/10/02 10:20:00;;;;;;;8.60;2.10;;;18.30;99.90;;;;;;4959096;28;92932;-70
2022/10/02 10:23:05;;;;;;;10.07;3.70;;;18.30;99.90;;;;;;4957746;28;93182;-70
2022/10/02 10:25:49;;;;;;;5.72;1.85;;;18.20;99.90;;;;;;4973707;28;95831;-70
2022/10/02 10:28:16;;;;;;;;;;;18.10;99.90;;;;;;4958230;28;92493;-70
2022/10/02 10:31:04;;;;;;;8.35;2.28;;;17.90;99.90;;;;;;4959914;28;92408;-70
2022/10/02 10:33:52;;;;;;;8.35;3.28;;;17.80;99.90;;;;;;4941521;28;94452;-70
2022/10/02 10:39:50;;;;;;;7.68;2.63;;;17.90;99.90;;;;;;4958955;28;92358;-70
2022/10/02 10:42:33;;;;;;;10.55;2.63;;;17.90;99.90;;;;;;4958993;28;93016;-70
2022/10/02 10:45:18;;;;;;;12.95;4.40;;;17.90;99.90;;;;;;4941853;28;97275;-70
2022/10/02 10:48:03;;;;;;;10.73;4.00;;;17.90;99.90;;;;;;4940575;28;98055;-70
2022/10/02 10:51:01;;;;;;;9.13;2.20;;;18.00;99.90;;;;;;4958760;28;92888;-70
2022/10/02 10:53:30;;;;;;;9.15;2.10;;;18.20;99.90;;;;;;4973521;28;92453;-70
2022/10/02 10:56:20;;;;;;;12.77;3.17;;;18.20;99.90;;;;;;4958264;28;93365;-70
2022/10/02 10:59:05;;;;;;;8.85;2.63;;;18.30;99.90;;;;;;4958012;28;92919;-70
2022/10/02 11:01:54;;;;;;;11.55;3.22;;;18.50;99.90;;;;;;4958526;28;92474;-70
2022/10/02 11:04:51;;;;;;;11.23;3.00;;;18.50;99.90;;;;;;4941116;28;91854;-70
2022/10/02 11:07:51;;;;;;;11.13;3.47;;;18.60;99.90;;;;;;4956644;28;96042;-70
2022/10/02 11:10:56;;;;;;;9.75;3.75;;;18.70;99.90;;;;;;4951145;28;95649;-70
2022/10/02 11:13:53;;;;;;;10.15;2.85;;;18.70;99.90;;;;;;4971738;28;94941;-70
2022/10/02 11:16:57;;;;;;;8.95;3.50;;;18.60;99.90;;;;;;4955449;28;92529;-70
2022/10/02 11:19:53;;;;;;;11.43;4.03;;;18.60;99.90;;;;;;4957974;28;93073;-70
2022/10/02 11:22:32;;;;;;;8.13;2.03;;;18.90;99.90;;;;;;4955973;28;92426;-70
2022/10/02 11:25:24;;;;;;;10.60;3.20;;;19.40;99.90;;;;;;4972126;28;92480;-70
2022/10/02 11:28:03;;;;;;;12.68;2.50;;;19.80;99.90;;;;;;4956497;28;92533;-70
2022/10/02 11:31:07;;;;;;;8.68;3.38;;;19.90;99.10;;;;;;4956764;28;93360;-70
2022/10/02 11:33:54;;;;;;;13.35;3.88;;;20.30;99.10;;;;;;4958433;28;93050;-70
2022/10/02 11:36:44;;;;;;;10.73;2.95;;;20.50;98.50;;;;;;4956072;28;92475;-70
2022/10/02 11:40:10;;;;;;;6.38;2.70;;;20.50;96.60;;;;;;4956921;28;92478;-70
2022/10/02 11:42:55;;;;;;;10.77;2.35;;;20.30;94.10;;;;;;4934553;28;95611;-70
2022/10/02 11:45:59;;;;;;;7.07;2.22;;;19.90;94.40;;;;;;4919857;28;94090;-70
2022/10/02 11:48:42;;;;;;;8.75;2.20;;;19.90;94.80;;;;;;4953078;28;93722;-70
2022/10/02 11:51:47;;;;;;;8.13;2.55;;;20.10;95.50;;;;;;4957602;28;92903;-70
2022/10/02 11:54:43;;;;;;;11.00;2.80;;;20.10;93.90;;;;;;4957373;28;92455;-70
2022/10/02 11:57:22;;;;;;;9.75;2.22;;;20.10;94.50;;;;;;4955832;28;93035;-70
2022/10/02 12:00:17;;;;;;;9.85;3.33;;;20.00;94.10;;;;;;4956200;28;92521;-73
2022/10/02 12:03:12;;;;;;;12.80;2.63;;;19.90;93.20;;;;;;4957976;28;91670;-70
2022/10/02 12:05:45;;;;;;;10.20;3.90;;;19.80;93.90;;;;;;4957347;28;93317;-70
2022/10/02 12:08:43;;;;;;;11.30;2.72;;;19.80;94.30;;;;;;4957039;28;92466;-70
2022/10/02 12:11:31;;;;;;;8.50;2.30;;;19.90;94.20;;;;;;4955847;28;94935;-72
2022/10/02 12:14:27;;;;;;;8.20;2.30;;;19.70;93.90;;;;;;4957035;28;92474;-72
2022/10/02 12:17:13;;;;;;;10.23;3.22;;;19.60;93.00;;;;;;4957259;28;93306;-72
2022/10/02 12:29:30;;;;;;;7.28;3.67;;;19.20;94.00;;;;;;4971604;28;94548;-70
2022/10/02 12:32:07;;;;;;;11.40;4.28;;;19.40;94.60;;;;;;4957411;28;92903;-70
2022/10/02 12:34:34;;;;;;;11.30;2.65;;;19.70;94.60;;;;;;4956973;28;92438;-70
2022/10/02 12:37:11;;;;;;;8.73;2.20;;;19.90;93.90;;;;;;4954038;28;92510;-70
2022/10/02 12:40:11;;;;;;;8.10;2.15;;;20.20;93.70;;;;;;4954729;28;95392;-70
2022/10/02 12:43:00;;;;;;;7.95;2.90;;;20.50;93.30;;;;;;4955424;28;95505;-70
2022/10/02 12:45:46;;;;;;;9.27;4.65;;;20.50;93.20;;;;;;4957120;28;92446;-70
2022/10/02 12:49:01;;;;;;;7.32;2.60;;;20.50;92.80;;;;;;4956932;28;92454;-70
2022/10/02 12:51:37;;;;;;;9.88;2.60;;;20.40;92.30;;;;;;4944196;28;93394;-70
2022/10/02 12:54:13;;;;;;;10.23;2.97;;;20.30;92.70;;;;;;4956529;28;93006;-70
2022/10/02 12:56:59;;;;;;;8.13;2.70;;;20.50;92.30;;;;;;4955724;28;92496;-70
2022/10/02 12:59:34;;;;;;;7.90;2.85;;;20.50;91.90;;;;;;4957036;28;91654;-70
2022/10/02 13:02:27;;;;;;;10.10;2.25;;;20.10;92.20;;;;;;4956168;28;93555;-70
2022/10/02 13:05:30;;;;;;;5.93;2.57;;;19.90;92.80;;;;;;4955268;28;93032;-70
2022/10/02 13:08:19;;;;;;;9.27;3.80;;;19.50;93.50;;;;;;4970462;28;94855;-70
2022/10/02 13:11:03;;;;;;;15.38;4.72;;;19.40;94.00;;;;;;4955346;28;92525;-70
2022/10/02 13:14:09;;;;;;;8.80;2.45;;;19.20;94.30;;;;;;4956523;28;93207;-70
2022/10/02 13:16:47;;;;;;;7.47;1.95;;;19.20;94.60;;;;;;4955193;28;93128;-72
2022/10/02 13:19:20;;;;;;;10.02;2.63;;;19.30;94.70;;;;;;4956149;28;92431;-72
2022/10/02 13:22:02;;;;;;;7.53;2.50;;;19.50;94.30;;;;;;4955434;28;93321;-72
2022/10/02 13:25:01;;;;;;;10.30;2.10;;;19.80;93.70;;;;;;4970980;28;96245;-70
2022/10/02 13:27:43;;;;;;;8.13;2.67;;;20.10;92.50;;;;;;4956248;28;92966;-72
2022/10/02 13:30:19;;;;;;;10.95;3.15;;;20.10;91.80;;;;;;4956441;28;93108;-72
2022/10/02 13:33:10;;;;;;;10.32;1.63;;;20.20;92.00;;;;;;4956096;28;93002;-72
2022/10/02 13:35:58;;;;;;;11.48;4.45;;;20.40;92.60;;;;;;4962201;28;96307;-72
2022/10/02 13:39:09;;;;;;;5.43;1.83;;;20.50;91.40;;;;;;4956282;28;95216;-72
2022/10/02 13:41:46;;;;;;;8.57;1.60;;;20.60;91.60;;;;;;4917922;28;92689;-72
2022/10/02 13:44:37;;;;;;;7.03;2.30;;;20.50;91.60;;;;;;4953466;28;92433;-72
2022/10/02 13:47:07;;;;;;;8.35;2.05;;;20.20;91.60;;;;;;4970851;28;95694;-72
2022/10/02 13:49:46;;;;;;;7.97;2.75;;;20.00;92.60;;;;;;4957814;28;93093;-72
2022/10/02 13:52:35;;;;;;;4.95;1.90;;;19.90;92.60;;;;;;4941723;28;92400;-72
2022/10/02 13:55:23;;;;;;;8.45;2.80;;;19.90;93.00;;;;;;4960202;28;92226;-72
2022/10/02 13:58:07;;;;;;;7.22;3.38;;;19.80;93.30;;;;;;4957846;28;92465;-72
2022/10/02 14:00:37;;;;;;;9.25;3.45;;;19.60;93.00;;;;;;4941933;28;94109;-72
2022/10/02 14:03:19;;;;;;;11.32;2.22;;;19.40;93.30;;;;;;4958281;28;94867;-72
2022/10/02 14:06:19;;;;;;;7.88;2.15;;;19.40;93.50;;;;;;4959244;28;93087;-72
2022/10/02 14:09:07;;;;;;;10.60;2.50;;;19.50;93.10;;;;;;4959211;28;92470;-72
2022/10/02 14:12:02;;;;;;;8.05;3.25;;;19.80;92.90;;;;;;4958836;28;93092;-72
2022/10/02 14:14:57;;;;;;;13.48;3.53;;;20.10;92.60;;;;;;4957502;28;92490;-72
2022/10/02 14:17:30;;;;;;;7.43;1.55;;;20.40;92.30;;;;;;4959388;28;92865;-72
2022/10/02 14:20:23;;;;;;;9.15;2.78;;;20.50;92.20;;;;;;4958907;28;93253;-72